createdAt,value
2018-08-11T00:01:50.607Z,1013.24
2018-08-11T00:02:50.596Z,1013.22
2018-08-11T00:04:43.508Z,1013.20
2018-08-11T00:05:43.530Z,1013.20
2018-08-11T00:07:36.482Z,1013.19
2018-08-11T00:08:36.462Z,1013.21
2018-08-11T00:10:29.371Z,1013.19
2018-08-11T00:11:29.393Z,1013.22
2018-08-11T00:13:22.321Z,1013.24
2018-08-11T00:14:22.331Z,1013.24
2018-08-11T00:16:15.265Z,1013.18
2018-08-11T00:17:15.259Z,1013.21
2018-08-11T00:19:08.184Z,1013.15
2018-08-11T00:20:08.193Z,1013.11
2018-08-11T00:22:01.124Z,1013.12
2018-08-11T00:23:01.125Z,1013.11
2018-08-11T00:24:54.072Z,1013.04
2018-08-11T00:25:54.119Z,1013.08
2018-08-11T00:27:47.091Z,1013.04
2018-08-11T00:28:47.055Z,1013.05
2018-08-11T00:30:39.958Z,1013.05
2018-08-11T00:31:39.949Z,1013.03
2018-08-11T00:33:32.899Z,1013.02
2018-08-11T00:34:32.890Z,1013.01
2018-08-11T00:36:25.845Z,1013.01
2018-08-11T00:37:25.792Z,1013.00
2018-08-11T00:39:18.839Z,1013.02
2018-08-11T00:40:18.865Z,1012.96
2018-08-11T00:42:11.793Z,1012.95
2018-08-11T00:43:11.797Z,1012.98
2018-08-11T00:45:04.708Z,1012.95
2018-08-11T00:46:04.727Z,1012.92
2018-08-11T00:47:57.669Z,1012.91
2018-08-11T00:48:57.670Z,1012.92
2018-08-11T00:50:50.585Z,1012.90
2018-08-11T00:51:50.613Z,1012.88
2018-08-11T00:53:43.540Z,1012.88
2018-08-11T00:54:43.543Z,1012.88
2018-08-11T00:56:36.471Z,1012.91
2018-08-11T00:57:36.474Z,1012.91
2018-08-11T00:59:29.387Z,1012.93
2018-08-11T01:00:29.411Z,1012.91
2018-08-11T01:02:22.379Z,1012.93
2018-08-11T01:03:22.342Z,1012.92
2018-08-11T01:05:15.256Z,1012.93
2018-08-11T01:06:15.288Z,1012.97
2018-08-11T01:08:08.211Z,1012.97
2018-08-11T01:09:08.214Z,1012.97
2018-08-11T01:11:01.381Z,1012.95
2018-08-11T01:12:01.350Z,1012.97
2018-08-11T01:13:54.280Z,1012.94
2018-08-11T01:14:54.283Z,1012.94
2018-08-11T01:16:47.209Z,1012.96
2018-08-11T01:17:47.211Z,1012.96
2018-08-11T01:19:40.128Z,1013.01
2018-08-11T01:20:40.154Z,1012.99
2018-08-11T01:22:33.081Z,1012.99
2018-08-11T01:23:33.086Z,1013.01
2018-08-11T01:25:25.995Z,1013.00
2018-08-11T01:26:26.017Z,1012.99
2018-08-11T01:28:18.947Z,1012.99
2018-08-11T01:29:18.950Z,1013.03
2018-08-11T01:31:11.872Z,1013.04
2018-08-11T01:32:11.886Z,1013.08
2018-08-11T01:34:04.823Z,1013.10
2018-08-11T01:35:04.823Z,1013.12
2018-08-11T01:36:57.753Z,1013.09
2018-08-11T01:37:57.753Z,1013.13
2018-08-11T01:39:50.661Z,1013.13
2018-08-11T01:40:50.684Z,1013.20
2018-08-11T01:42:43.619Z,1013.26
2018-08-11T01:43:43.623Z,1013.33
2018-08-11T01:45:36.535Z,1013.35
2018-08-11T01:46:36.554Z,1013.35
2018-08-11T01:48:29.485Z,1013.37
2018-08-11T01:49:29.489Z,1013.37
2018-08-11T01:51:22.397Z,1013.40
2018-08-11T01:52:22.420Z,1013.40
2018-08-11T01:54:15.352Z,1013.41
2018-08-11T01:55:15.355Z,1013.40
2018-08-11T01:57:08.284Z,1013.36
2018-08-11T01:58:08.285Z,1013.38
2018-08-11T02:00:01.222Z,1013.47
2018-08-11T02:01:01.221Z,1013.45
2018-08-11T02:02:54.173Z,1013.54
2018-08-11T02:03:54.158Z,1013.57
2018-08-11T02:05:47.081Z,1013.58
2018-08-11T02:06:47.097Z,1013.63
2018-08-11T02:08:40.049Z,1013.63
2018-08-11T02:09:40.037Z,1013.63
2018-08-11T02:11:32.956Z,1013.65
2018-08-11T02:12:32.967Z,1013.67
2018-08-11T02:14:25.900Z,1013.78
2018-08-11T02:15:25.902Z,1013.71
2018-08-11T02:17:18.962Z,1013.88
2018-08-11T02:18:18.983Z,1013.98
2018-08-11T02:20:11.934Z,1014.01
2018-08-11T02:21:11.938Z,1014.00
2018-08-11T02:23:04.869Z,1014.02
2018-08-11T02:24:04.872Z,1013.98
2018-08-11T02:25:57.782Z,1013.97
2018-08-11T02:26:57.803Z,1013.94
2018-08-11T02:28:50.735Z,1013.94
2018-08-11T02:29:50.737Z,1013.93
2018-08-11T02:31:43.648Z,1013.86
2018-08-11T02:32:43.667Z,1013.85
2018-08-11T02:34:36.610Z,1013.89
2018-08-11T02:35:36.610Z,1013.84
2018-08-11T02:37:29.517Z,1013.90
2018-08-11T02:38:29.539Z,1013.85
2018-08-11T02:40:22.468Z,1013.73
2018-08-11T02:41:22.472Z,1013.66
2018-08-11T02:43:15.401Z,1013.72
2018-08-11T02:44:15.404Z,1013.74
2018-08-11T02:46:08.309Z,1013.73
2018-08-11T02:47:08.330Z,1013.74
2018-08-11T02:49:01.271Z,1013.83
2018-08-11T02:50:01.275Z,1013.88
2018-08-11T02:51:54.624Z,1013.77
2018-08-11T02:52:54.632Z,1013.76
2018-08-11T02:54:47.566Z,1013.82
2018-08-11T02:55:47.565Z,1013.89
2018-08-11T02:57:40.477Z,1014.13
2018-08-11T02:58:40.493Z,1014.11
2018-08-11T03:00:33.422Z,1014.02
2018-08-11T03:01:33.421Z,1014.04
2018-08-11T03:03:26.349Z,1014.07
2018-08-11T03:04:26.352Z,1013.97
2018-08-11T03:06:19.256Z,1013.83
2018-08-11T03:07:19.279Z,1013.83
2018-08-11T03:09:12.208Z,1013.86
2018-08-11T03:10:12.219Z,1013.91
2018-08-11T03:12:05.123Z,1013.98
2018-08-11T03:13:05.151Z,1013.99
2018-08-11T03:14:58.073Z,1013.98
2018-08-11T03:15:58.078Z,1014.00
2018-08-11T03:17:50.984Z,1013.95
2018-08-11T03:18:51.003Z,1013.90
2018-08-11T03:20:43.938Z,1013.75
2018-08-11T03:21:43.936Z,1013.71
2018-08-11T03:23:37.033Z,1013.70
2018-08-11T03:24:37.029Z,1013.73
2018-08-11T03:26:29.955Z,1013.79
2018-08-11T03:27:29.961Z,1013.78
2018-08-11T03:29:23.882Z,1013.83
2018-08-11T03:30:23.881Z,1013.83
2018-08-11T03:32:16.797Z,1013.86
2018-08-11T03:33:16.809Z,1013.87
2018-08-11T03:35:09.738Z,1013.92
2018-08-11T03:36:09.762Z,1013.99
2018-08-11T03:38:02.643Z,1014.06
2018-08-11T03:39:02.664Z,1014.08
2018-08-11T03:40:55.590Z,1014.06
2018-08-11T03:41:55.592Z,1014.12
2018-08-11T03:43:48.573Z,1014.19
2018-08-11T03:44:48.519Z,1014.22
2018-08-11T03:46:41.428Z,1014.28
2018-08-11T03:47:41.451Z,1014.30
2018-08-11T03:49:34.387Z,1014.32
2018-08-11T03:50:34.390Z,1014.38
2018-08-11T03:52:27.371Z,1014.35
2018-08-11T03:53:27.326Z,1014.38
2018-08-11T03:55:20.249Z,1014.42
2018-08-11T03:56:20.252Z,1014.44
2018-08-11T03:58:13.156Z,1014.45
2018-08-11T03:59:13.177Z,1014.49
2018-08-11T04:01:06.103Z,1014.47
2018-08-11T04:02:06.113Z,1014.48
2018-08-11T04:03:59.033Z,1014.53
2018-08-11T04:04:59.035Z,1014.49
2018-08-11T04:06:51.946Z,1014.51
2018-08-11T04:07:51.968Z,1014.51
2018-08-11T04:09:44.895Z,1014.55
2018-08-11T04:10:44.893Z,1014.53
2018-08-11T04:12:37.801Z,1014.52
2018-08-11T04:13:37.821Z,1014.53
2018-08-11T04:15:30.754Z,1014.53
2018-08-11T04:16:30.756Z,1014.57
2018-08-11T04:18:23.660Z,1014.56
2018-08-11T04:19:23.682Z,1014.58
2018-08-11T04:21:16.611Z,1014.60
2018-08-11T04:22:16.690Z,1014.62
2018-08-11T04:24:09.559Z,1014.64
2018-08-11T04:25:09.539Z,1014.66
2018-08-11T04:27:02.479Z,1014.66
2018-08-11T04:28:02.481Z,1014.70
2018-08-11T04:29:55.420Z,1014.70
2018-08-11T04:30:55.411Z,1014.68
2018-08-11T04:32:48.328Z,1014.65
2018-08-11T04:33:48.337Z,1014.66
2018-08-11T04:35:41.308Z,1014.65
2018-08-11T04:36:41.289Z,1014.70
2018-08-11T04:38:34.181Z,1014.68
2018-08-11T04:39:34.204Z,1014.71
2018-08-11T04:41:27.138Z,1014.66
2018-08-11T04:42:27.137Z,1014.65
2018-08-11T04:44:20.061Z,1014.64
2018-08-11T04:45:20.060Z,1014.65
2018-08-11T04:47:12.964Z,1014.65
2018-08-11T04:48:12.985Z,1014.68
2018-08-11T04:50:05.916Z,1014.64
2018-08-11T04:51:05.918Z,1014.68
2018-08-11T04:52:58.825Z,1014.69
2018-08-11T04:53:58.847Z,1014.70
2018-08-11T04:55:51.774Z,1014.68
2018-08-11T04:56:51.774Z,1014.73
2018-08-11T04:58:44.679Z,1014.73
2018-08-11T04:59:44.700Z,1014.75
2018-08-11T05:01:37.630Z,1014.80
2018-08-11T05:02:37.630Z,1014.83
2018-08-11T05:04:30.562Z,1014.85
2018-08-11T05:05:30.562Z,1014.84
2018-08-11T05:07:23.470Z,1014.86
2018-08-11T05:08:23.495Z,1014.81
2018-08-11T05:10:16.421Z,1014.82
2018-08-11T05:11:16.420Z,1014.85
2018-08-11T05:13:09.326Z,1014.85
2018-08-11T05:14:09.349Z,1014.82
2018-08-11T05:16:02.280Z,1014.92
2018-08-11T05:17:02.277Z,1014.94
2018-08-11T05:18:55.182Z,1015.00
2018-08-11T05:19:55.246Z,1015.03
2018-08-11T05:21:48.136Z,1015.03
2018-08-11T05:22:48.137Z,1015.04
2018-08-11T05:24:41.065Z,1015.00
2018-08-11T05:25:41.067Z,1015.00
2018-08-11T05:27:33.976Z,1014.97
2018-08-11T05:28:33.997Z,1014.96
2018-08-11T05:30:26.923Z,1015.00
2018-08-11T05:31:26.926Z,1014.95
2018-08-11T05:33:19.939Z,1015.02
2018-08-11T05:34:19.856Z,1015.05
2018-08-11T05:36:12.787Z,1015.02
2018-08-11T05:37:12.790Z,1015.06
2018-08-11T05:39:05.696Z,1015.06
2018-08-11T05:40:05.717Z,1015.08
2018-08-11T05:41:58.650Z,1015.17
2018-08-11T05:42:58.659Z,1015.12
2018-08-11T05:44:51.593Z,1015.17
2018-08-11T05:45:51.594Z,1015.17
2018-08-11T05:47:44.500Z,1015.17
2018-08-11T05:48:44.519Z,1015.15
2018-08-11T05:50:37.453Z,1015.14
2018-08-11T05:51:37.459Z,1015.15
2018-08-11T05:53:30.369Z,1015.13
2018-08-11T05:54:30.397Z,1015.16
2018-08-11T05:56:23.324Z,1015.19
2018-08-11T05:57:23.327Z,1015.20
2018-08-11T05:59:16.235Z,1015.19
2018-08-11T06:00:16.258Z,1015.15
2018-08-11T06:02:09.184Z,1015.17
2018-08-11T06:03:09.189Z,1015.19
2018-08-11T06:05:02.123Z,1015.21
2018-08-11T06:06:02.124Z,1015.26
2018-08-11T06:07:55.044Z,1015.20
2018-08-11T06:08:55.060Z,1015.25
2018-08-11T06:10:48.001Z,1015.22
2018-08-11T06:11:48.001Z,1015.26
2018-08-11T06:13:40.906Z,1015.22
2018-08-11T06:14:40.928Z,1015.26
2018-08-11T06:16:33.864Z,1015.37
2018-08-11T06:17:33.862Z,1015.28
2018-08-11T06:19:26.774Z,1015.34
2018-08-11T06:20:26.798Z,1015.27
2018-08-11T06:22:19.731Z,1015.34
2018-08-11T06:23:19.733Z,1015.37
2018-08-11T06:25:12.664Z,1015.36
2018-08-11T06:26:12.668Z,1015.37
2018-08-11T06:28:05.582Z,1015.34
2018-08-11T06:29:05.610Z,1015.40
2018-08-11T06:30:58.536Z,1015.41
2018-08-11T06:31:58.617Z,1015.40
2018-08-11T06:33:51.451Z,1015.38
2018-08-11T06:34:51.476Z,1015.35
2018-08-11T06:36:44.406Z,1015.45
2018-08-11T06:37:44.411Z,1015.43
2018-08-11T06:39:37.373Z,1015.47
2018-08-11T06:40:37.472Z,1015.51
2018-08-11T06:42:30.336Z,1015.53
2018-08-11T06:43:30.340Z,1015.54
2018-08-11T06:45:23.267Z,1015.54
2018-08-11T06:46:23.267Z,1015.54
2018-08-11T06:48:17.174Z,1015.58
2018-08-11T06:49:17.200Z,1015.53
2018-08-11T06:51:10.136Z,1015.50
2018-08-11T06:52:10.133Z,1015.54
2018-08-11T06:54:03.050Z,1015.53
2018-08-11T06:55:03.081Z,1015.61
2018-08-11T06:56:56.005Z,1015.59
2018-08-11T06:57:56.013Z,1015.60
2018-08-11T06:59:48.925Z,1015.58
2018-08-11T07:00:48.955Z,1015.58
2018-08-11T07:02:41.887Z,1015.64
2018-08-11T07:03:41.896Z,1015.57
2018-08-11T07:05:34.839Z,1015.63
2018-08-11T07:06:34.909Z,1015.64
2018-08-11T07:08:27.765Z,1015.71
2018-08-11T07:09:27.798Z,1015.71
2018-08-11T07:11:20.739Z,1015.67
2018-08-11T07:12:20.760Z,1015.70
2018-08-11T07:14:13.664Z,1015.63
2018-08-11T07:15:13.739Z,1015.66
2018-08-11T07:17:06.635Z,1015.72
2018-08-11T07:18:06.640Z,1015.69
2018-08-11T07:19:59.560Z,1015.73
2018-08-11T07:20:59.587Z,1015.81
2018-08-11T07:22:52.519Z,1015.84
2018-08-11T07:23:52.536Z,1015.86
2018-08-11T07:25:45.545Z,1015.87
2018-08-11T07:26:45.466Z,1015.87
2018-08-11T07:28:38.387Z,1015.91
2018-08-11T07:29:38.413Z,1015.90
2018-08-11T07:31:31.347Z,1015.90
2018-08-11T07:32:31.357Z,1015.93
2018-08-11T07:34:24.262Z,1015.93
2018-08-11T07:35:24.288Z,1015.91
2018-08-11T07:37:17.240Z,1015.90
2018-08-11T07:38:17.237Z,1015.89
2018-08-11T07:40:10.159Z,1016.00
2018-08-11T07:41:10.185Z,1015.98
2018-08-11T07:43:03.127Z,1015.99
2018-08-11T07:44:03.127Z,1015.96
2018-08-11T07:45:56.041Z,1015.95
2018-08-11T07:46:56.070Z,1015.97
2018-08-11T07:48:49.001Z,1015.95
2018-08-11T07:49:49.004Z,1015.92
2018-08-11T07:51:41.939Z,1015.93
2018-08-11T07:52:41.948Z,1015.92
2018-08-11T07:54:34.856Z,1015.92
2018-08-11T07:55:34.881Z,1015.91
2018-08-11T07:57:27.824Z,1015.91
2018-08-11T07:58:27.826Z,1015.93
2018-08-11T08:00:20.736Z,1015.94
2018-08-11T08:01:20.785Z,1015.98
2018-08-11T08:03:13.880Z,1016.00
2018-08-11T08:04:13.889Z,1016.02
2018-08-11T08:06:06.799Z,1016.03
2018-08-11T08:07:06.822Z,1015.99
2018-08-11T08:08:59.756Z,1016.01
2018-08-11T08:09:59.757Z,1015.98
2018-08-11T08:11:52.695Z,1016.00
2018-08-11T08:12:52.702Z,1016.04
2018-08-11T08:14:45.611Z,1016.07
2018-08-11T08:15:45.633Z,1016.05
2018-08-11T08:17:39.563Z,1016.03
2018-08-11T08:18:39.566Z,1016.08
2018-08-11T08:20:32.481Z,1016.15
2018-08-11T08:21:32.505Z,1016.06
2018-08-11T08:23:25.439Z,1016.14
2018-08-11T08:24:25.444Z,1016.11
2018-08-11T08:26:18.504Z,1016.17
2018-08-11T08:27:18.378Z,1016.18
2018-08-11T08:29:11.328Z,1016.19
2018-08-11T08:30:11.323Z,1016.24
2018-08-11T08:32:04.752Z,1016.20
2018-08-11T08:33:04.758Z,1016.24
2018-08-11T08:34:57.887Z,1016.23
2018-08-11T08:35:57.915Z,1016.32
2018-08-11T08:37:50.848Z,1016.19
2018-08-11T08:38:50.851Z,1016.20
2018-08-11T08:40:43.769Z,1016.19
2018-08-11T08:41:43.841Z,1016.15
2018-08-11T08:43:36.728Z,1016.23
2018-08-11T08:44:36.737Z,1016.25
2018-08-11T08:46:29.650Z,1016.24
2018-08-11T08:47:29.687Z,1016.17
2018-08-11T08:49:22.611Z,1016.17
2018-08-11T08:50:22.624Z,1016.20
2018-08-11T08:52:15.557Z,1016.22
2018-08-11T08:53:15.605Z,1016.28
2018-08-11T08:55:08.471Z,1016.19
2018-08-11T08:56:08.496Z,1016.19
2018-08-11T08:58:01.430Z,1016.18
2018-08-11T08:59:01.439Z,1016.16
2018-08-11T09:00:54.351Z,1016.09
2018-08-11T09:01:54.383Z,1016.09
2018-08-11T09:03:47.325Z,1016.10
2018-08-11T09:04:47.333Z,1016.07
2018-08-11T09:06:40.245Z,1016.13
2018-08-11T09:07:40.278Z,1016.13
2018-08-11T09:09:33.217Z,1016.13
2018-08-11T09:10:33.217Z,1016.16
2018-08-11T09:12:26.152Z,1016.19
2018-08-11T09:13:26.161Z,1016.23
2018-08-11T09:15:19.081Z,1016.14
2018-08-11T09:16:19.102Z,1016.15
2018-08-11T09:18:12.039Z,1016.11
2018-08-11T09:19:12.045Z,1016.09
2018-08-11T09:21:04.957Z,1016.17
2018-08-11T09:22:04.986Z,1016.20
2018-08-11T09:23:57.918Z,1016.16
2018-08-11T09:24:57.929Z,1016.13
2018-08-11T09:26:50.842Z,1016.05
2018-08-11T09:27:50.870Z,1016.07
2018-08-11T09:29:43.807Z,1016.06
2018-08-11T09:30:43.814Z,1016.12
2018-08-11T09:32:36.750Z,1016.07
2018-08-11T09:33:36.759Z,1016.08
2018-08-11T09:35:29.672Z,1016.16
2018-08-11T09:36:29.702Z,1016.13
2018-08-11T09:38:22.685Z,1016.13
2018-08-11T09:39:22.643Z,1016.12
2018-08-11T09:41:15.556Z,1016.14
2018-08-11T09:42:15.586Z,1016.16
2018-08-11T09:44:08.518Z,1016.18
2018-08-11T09:45:08.523Z,1016.18
2018-08-11T09:47:01.439Z,1016.19
2018-08-11T09:48:01.470Z,1016.24
2018-08-11T09:49:54.401Z,1016.29
2018-08-11T09:50:54.403Z,1016.25
2018-08-11T09:52:47.340Z,1016.22
2018-08-11T09:53:47.342Z,1016.17
2018-08-11T09:55:40.258Z,1016.21
2018-08-11T09:56:40.281Z,1016.22
2018-08-11T09:58:33.229Z,1016.12
2018-08-11T09:59:33.229Z,1016.08
2018-08-11T10:01:26.141Z,1016.20
2018-08-11T10:02:26.169Z,1016.08
2018-08-11T10:04:19.113Z,1016.15
2018-08-11T10:05:19.112Z,1016.17
2018-08-11T10:07:12.028Z,1016.14
2018-08-11T10:08:12.058Z,1016.12
2018-08-11T10:10:04.992Z,1016.09
2018-08-11T10:11:05.003Z,1016.08
2018-08-11T10:12:57.936Z,1016.08
2018-08-11T10:13:57.944Z,1016.15
2018-08-11T10:15:50.859Z,1016.06
2018-08-11T10:16:50.889Z,1016.10
2018-08-11T10:18:43.821Z,1016.08
2018-08-11T10:19:43.824Z,1016.13
2018-08-11T10:21:36.741Z,1016.11
2018-08-11T10:22:36.771Z,1016.10
2018-08-11T10:24:29.703Z,1016.13
2018-08-11T10:25:29.712Z,1016.08
2018-08-11T10:27:22.628Z,1016.07
2018-08-11T10:28:22.655Z,1016.19
2018-08-11T10:30:15.639Z,1016.16
2018-08-11T10:31:15.593Z,1016.07
2018-08-11T10:33:08.532Z,1016.14
2018-08-11T10:34:08.540Z,1016.10
2018-08-11T10:36:01.462Z,1016.12
2018-08-11T10:37:01.484Z,1016.18
2018-08-11T10:38:54.422Z,1016.06
2018-08-11T10:39:54.447Z,1016.13
2018-08-11T10:41:47.342Z,1016.16
2018-08-11T10:42:47.370Z,1016.12
2018-08-11T10:44:40.300Z,1016.15
2018-08-11T10:45:40.311Z,1016.12
2018-08-11T10:47:33.224Z,1016.06
2018-08-11T10:48:33.253Z,1016.06
2018-08-11T10:50:26.186Z,1015.99
2018-08-11T10:51:26.194Z,1016.08
2018-08-11T10:53:19.136Z,1016.06
2018-08-11T10:54:19.139Z,1016.10
2018-08-11T10:56:12.053Z,1016.11
2018-08-11T10:57:12.084Z,1016.10
2018-08-11T10:59:05.027Z,1016.19
2018-08-11T11:00:05.041Z,1016.16
2018-08-11T11:01:57.956Z,1016.10
2018-08-11T11:02:57.978Z,1016.06
2018-08-11T11:04:50.911Z,1016.04
2018-08-11T11:05:50.920Z,1015.98
2018-08-11T11:07:43.831Z,1015.97
2018-08-11T11:08:43.860Z,1015.98
2018-08-11T11:10:36.792Z,1015.99
2018-08-11T11:11:36.795Z,1015.95
2018-08-11T11:13:29.733Z,1016.00
2018-08-11T11:14:29.735Z,1015.95
2018-08-11T11:16:22.650Z,1016.00
2018-08-11T11:17:22.674Z,1016.02
2018-08-11T11:19:15.614Z,1015.99
2018-08-11T11:20:15.619Z,1015.98
2018-08-11T11:22:08.540Z,1015.89
2018-08-11T11:23:08.560Z,1015.95
2018-08-11T11:25:01.497Z,1015.97
2018-08-11T11:26:01.500Z,1015.93
2018-08-11T11:27:54.419Z,1015.93
2018-08-11T11:28:54.447Z,1016.01
2018-08-11T11:30:47.379Z,1016.03
2018-08-11T11:31:47.389Z,1016.03
2018-08-11T11:33:44.976Z,1016.06
2018-08-11T11:34:40.333Z,1016.02
2018-08-11T11:36:33.246Z,1016.04
2018-08-11T11:37:33.277Z,1016.04
2018-08-11T11:39:26.219Z,1016.03
2018-08-11T11:40:26.220Z,1016.11
2018-08-11T11:42:19.135Z,1016.09
2018-08-11T11:43:19.190Z,1016.13
2018-08-11T11:45:12.109Z,1016.13
2018-08-11T11:46:12.112Z,1016.04
2018-08-11T11:48:05.037Z,1016.09
2018-08-11T11:49:05.061Z,1016.05
2018-08-11T11:50:58.013Z,1016.13
2018-08-11T11:51:58.063Z,1016.05
2018-08-11T11:53:50.951Z,1016.08
2018-08-11T11:54:50.961Z,1016.14
2018-08-11T11:56:43.878Z,1016.15
2018-08-11T11:57:43.903Z,1016.14
2018-08-11T11:59:36.848Z,1016.20
2018-08-11T12:00:36.852Z,1016.20
2018-08-11T12:02:30.261Z,1016.18
2018-08-11T12:03:30.290Z,1016.21
2018-08-11T12:05:23.225Z,1016.17
2018-08-11T12:06:23.233Z,1016.07
2018-08-11T12:08:16.147Z,1016.15
2018-08-11T12:09:16.178Z,1016.21
2018-08-11T12:11:09.113Z,1016.15
2018-08-11T12:12:09.126Z,1016.16
2018-08-11T12:14:02.063Z,1016.16
2018-08-11T12:15:02.072Z,1016.17
2018-08-11T12:16:54.982Z,1016.18
2018-08-11T12:17:55.007Z,1016.18
2018-08-11T12:19:47.945Z,1016.22
2018-08-11T12:20:47.953Z,1016.20
2018-08-11T12:22:40.951Z,1016.22
2018-08-11T12:23:40.895Z,1016.17
2018-08-11T12:25:33.836Z,1016.13
2018-08-11T12:26:33.842Z,1016.18
2018-08-11T12:28:26.756Z,1016.21
2018-08-11T12:29:26.786Z,1016.13
2018-08-11T12:31:22.108Z,1016.15
2018-08-11T12:32:19.727Z,1016.18
2018-08-11T12:34:12.715Z,1016.11
2018-08-11T12:35:12.674Z,1016.13
2018-08-11T12:37:05.616Z,1016.15
2018-08-11T12:38:05.644Z,1016.14
2018-08-11T12:39:58.590Z,1016.14
2018-08-11T12:40:58.600Z,1016.12
2018-08-11T12:42:51.506Z,1016.08
2018-08-11T12:43:51.535Z,1016.11
2018-08-11T12:45:44.506Z,1016.19
2018-08-11T12:46:44.480Z,1016.16
2018-08-11T12:48:37.391Z,1016.05
2018-08-11T12:49:37.418Z,1016.07
2018-08-11T12:51:30.356Z,1016.09
2018-08-11T12:52:30.364Z,1016.06
2018-08-11T12:54:23.337Z,1016.09
2018-08-11T12:55:23.308Z,1016.12
2018-08-11T12:57:16.231Z,1016.11
2018-08-11T12:58:16.257Z,1016.14
2018-08-11T13:00:09.195Z,1016.05
2018-08-11T13:01:09.204Z,1016.07
2018-08-11T13:03:02.121Z,1016.06
2018-08-11T13:04:02.149Z,1016.07
2018-08-11T13:05:55.097Z,1016.08
2018-08-11T13:06:55.156Z,1016.06
2018-08-11T13:08:48.019Z,1016.06
2018-08-11T13:09:48.044Z,1015.98
2018-08-11T13:11:41.030Z,1016.00
2018-08-11T13:12:40.995Z,1015.79
2018-08-11T13:14:33.934Z,1015.92
2018-08-11T13:15:33.942Z,1016.00
2018-08-11T13:17:26.856Z,1015.97
2018-08-11T13:18:26.965Z,1016.00
2018-08-11T13:20:19.829Z,1015.96
2018-08-11T13:21:19.848Z,1015.98
2018-08-11T13:23:12.753Z,1015.94
2018-08-11T13:24:12.784Z,1015.95
2018-08-11T13:26:05.720Z,1015.93
2018-08-11T13:27:05.728Z,1015.90
2018-08-11T13:28:58.645Z,1015.88
2018-08-11T13:29:58.674Z,1015.93
2018-08-11T13:31:51.610Z,1015.95
2018-08-11T13:32:51.620Z,1015.93
2018-08-11T13:34:44.566Z,1015.90
2018-08-11T13:35:44.566Z,1015.94
2018-08-11T13:37:37.481Z,1015.91
2018-08-11T13:38:37.550Z,1015.86
2018-08-11T13:40:30.444Z,1015.84
2018-08-11T13:41:30.452Z,1015.83
2018-08-11T13:43:23.376Z,1015.84
2018-08-11T13:44:23.397Z,1015.83
2018-08-11T13:46:16.340Z,1015.83
2018-08-11T13:47:16.348Z,1015.79
2018-08-11T13:49:09.267Z,1015.75
2018-08-11T13:50:09.297Z,1015.83
2018-08-11T13:52:02.240Z,1015.78
2018-08-11T13:53:02.243Z,1015.80
2018-08-11T13:54:55.159Z,1015.90
2018-08-11T13:55:55.189Z,1015.89
2018-08-11T13:57:48.128Z,1015.85
2018-08-11T13:58:48.134Z,1015.85
2018-08-11T14:00:41.071Z,1015.85
2018-08-11T14:01:41.083Z,1015.80
2018-08-11T14:03:34.001Z,1015.88
2018-08-11T14:04:34.027Z,1015.84
2018-08-11T14:06:26.963Z,1015.81
2018-08-11T14:07:27.009Z,1015.79
2018-08-11T14:09:19.889Z,1015.73
2018-08-11T14:10:19.920Z,1015.74
2018-08-11T14:12:12.865Z,1015.70
2018-08-11T14:13:12.867Z,1015.71
2018-08-11T14:15:05.877Z,1015.64
2018-08-11T14:16:05.817Z,1015.62
2018-08-11T14:17:58.759Z,1015.64
2018-08-11T14:18:58.767Z,1015.63
2018-08-11T14:20:51.718Z,1015.66
2018-08-11T14:21:51.725Z,1015.66
2018-08-11T14:23:44.642Z,1015.62
2018-08-11T14:24:44.671Z,1015.70
2018-08-11T14:26:37.608Z,1015.75
2018-08-11T14:27:37.616Z,1015.67
2018-08-11T14:29:30.531Z,1015.67
2018-08-11T14:30:30.562Z,1015.67
2018-08-11T14:32:23.506Z,1015.67
2018-08-11T14:33:23.508Z,1015.67
2018-08-11T14:35:16.427Z,1015.71
2018-08-11T14:36:16.456Z,1015.70
2018-08-11T14:38:09.391Z,1015.72
2018-08-11T14:39:09.402Z,1015.70
2018-08-11T14:41:02.346Z,1015.66
2018-08-11T14:42:02.345Z,1015.72
2018-08-11T14:43:55.264Z,1015.66
2018-08-11T14:44:55.295Z,1015.66
2018-08-11T14:46:49.239Z,1015.66
2018-08-11T14:47:49.262Z,1015.72
2018-08-11T14:49:42.165Z,1015.71
2018-08-11T14:50:42.273Z,1015.74
2018-08-11T14:52:35.133Z,1015.77
2018-08-11T14:53:35.142Z,1015.75
2018-08-11T14:55:28.059Z,1015.74
2018-08-11T14:56:28.090Z,1015.79
2018-08-11T14:58:21.034Z,1015.82
2018-08-11T14:59:21.035Z,1015.80
2018-08-11T15:01:13.983Z,1015.80
2018-08-11T15:02:13.988Z,1015.80
2018-08-11T15:04:06.911Z,1015.73
2018-08-11T15:05:06.935Z,1015.74
2018-08-11T15:06:59.878Z,1015.78
2018-08-11T15:07:59.883Z,1015.76
2018-08-11T15:09:52.846Z,1015.76
2018-08-11T15:10:52.833Z,1015.75
2018-08-11T15:12:45.778Z,1015.70
2018-08-11T15:13:45.778Z,1015.77
2018-08-11T15:15:38.920Z,1015.68
2018-08-11T15:16:38.949Z,1015.70
2018-08-11T15:18:31.905Z,1015.67
2018-08-11T15:19:31.914Z,1015.66
2018-08-11T15:21:26.081Z,1015.70
2018-08-11T15:22:26.086Z,1015.69
2018-08-11T15:24:19.221Z,1015.69
2018-08-11T15:25:19.247Z,1015.67
2018-08-11T15:27:12.194Z,1015.70
2018-08-11T15:28:12.194Z,1015.65
2018-08-11T15:30:05.114Z,1015.74
2018-08-11T15:31:05.146Z,1015.71
2018-08-11T15:32:58.075Z,1015.69
2018-08-11T15:33:58.086Z,1015.69
2018-08-11T15:35:51.007Z,1015.61
2018-08-11T15:36:51.032Z,1015.62
2018-08-11T15:38:43.985Z,1015.64
2018-08-11T15:39:43.978Z,1015.63
2018-08-11T15:41:36.913Z,1015.65
2018-08-11T15:42:36.923Z,1015.62
2018-08-11T15:44:29.845Z,1015.69
2018-08-11T15:47:22.799Z,1015.61
2018-08-11T15:48:22.808Z,1015.60
2018-08-11T15:50:15.727Z,1015.63
2018-08-11T15:51:15.754Z,1015.61
2018-08-11T15:53:08.701Z,1015.58
2018-08-11T15:54:08.761Z,1015.59
2018-08-11T15:56:02.169Z,1015.56
2018-08-11T15:57:01.800Z,1015.50
2018-08-11T15:58:54.598Z,1015.55
2018-08-11T15:59:54.610Z,1015.53
2018-08-11T16:01:47.545Z,1015.54
2018-08-11T16:02:47.551Z,1015.53
2018-08-11T16:04:40.467Z,1015.58
2018-08-11T16:05:40.497Z,1015.55
2018-08-11T16:07:33.440Z,1015.60
2018-08-11T16:08:33.440Z,1015.63
2018-08-11T16:10:26.360Z,1015.60
2018-08-11T16:11:26.388Z,1015.56
2018-08-11T16:13:19.334Z,1015.60
2018-08-11T16:14:19.338Z,1015.51
2018-08-11T16:16:12.253Z,1015.63
2018-08-11T16:17:12.284Z,1015.66
2018-08-11T16:19:05.222Z,1015.71
2018-08-11T16:20:05.228Z,1015.68
2018-08-11T16:21:58.172Z,1015.78
2018-08-11T16:22:58.178Z,1015.73
2018-08-11T16:24:51.088Z,1015.72
2018-08-11T16:25:51.118Z,1015.79
2018-08-11T16:27:44.054Z,1015.75
2018-08-11T16:28:44.062Z,1015.75
2018-08-11T16:30:36.976Z,1015.77
2018-08-11T16:31:37.006Z,1015.75
2018-08-11T16:33:30.123Z,1015.79
2018-08-11T16:34:30.128Z,1015.79
2018-08-11T16:36:23.046Z,1015.75
2018-08-11T16:37:23.076Z,1015.73
2018-08-11T16:39:16.013Z,1015.72
2018-08-11T16:40:16.020Z,1015.76
2018-08-11T16:42:08.956Z,1015.75
2018-08-11T16:43:08.963Z,1015.76
2018-08-11T16:45:01.894Z,1015.79
2018-08-11T16:46:01.921Z,1015.78
2018-08-11T16:47:54.929Z,1015.81
2018-08-11T16:48:54.865Z,1015.83
2018-08-11T16:50:47.790Z,1015.87
2018-08-11T16:51:47.818Z,1015.82
2018-08-11T16:53:40.758Z,1015.87
2018-08-11T16:54:40.765Z,1015.89
2018-08-11T16:56:33.698Z,1015.86
2018-08-11T16:57:33.708Z,1015.82
2018-08-11T16:59:26.689Z,1015.80
2018-08-11T17:00:26.652Z,1015.80
2018-08-11T17:02:19.586Z,1015.78
2018-08-11T17:03:19.597Z,1015.79
2018-08-11T17:05:12.525Z,1015.74
2018-08-11T17:06:12.546Z,1015.82
2018-08-11T17:08:05.477Z,1015.79
2018-08-11T17:09:05.486Z,1015.82
2018-08-11T17:10:58.414Z,1015.80
2018-08-11T17:11:58.441Z,1015.85
2018-08-11T17:13:51.396Z,1015.80
2018-08-11T17:14:51.498Z,1015.78
2018-08-11T17:16:44.302Z,1015.79
2018-08-11T17:17:44.330Z,1015.77
2018-08-11T17:19:37.274Z,1015.80
2018-08-11T17:20:37.300Z,1015.79
2018-08-11T17:22:30.214Z,1015.76
2018-08-11T17:23:30.221Z,1015.75
2018-08-11T17:25:23.130Z,1015.75
2018-08-11T17:26:23.163Z,1015.76
2018-08-11T17:28:16.092Z,1015.74